createdAt,value
2022-11-10T00:02:38.200Z,30.73
2022-11-10T00:05:23.963Z,20.48
2022-11-10T00:08:12.286Z,24.25
2022-11-10T00:11:01.339Z,24.70
2022-11-10T00:14:07.267Z,20.70
2022-11-10T00:17:02.345Z,16.52
2022-11-10T00:19:47.955Z,26.17
2022-11-10T00:22:34.740Z,30.77
2022-11-10T00:25:20.874Z,23.55
2022-11-10T00:28:07.649Z,22.92
2022-11-10T00:30:53.341Z,28.48
2022-11-10T00:33:41.156Z,14.93
2022-11-10T00:36:26.650Z,29.58
2022-11-10T00:39:12.459Z,28.58
2022-11-10T00:41:58.174Z,23.25
2022-11-10T00:44:45.064Z,23.77
2022-11-10T00:47:30.404Z,28.38
2022-11-10T00:50:16.227Z,26.02
2022-11-10T00:53:02.007Z,29.48
2022-11-10T00:55:47.412Z,23.75
2022-11-10T00:58:33.260Z,24.55
2022-11-10T01:01:21.980Z,23.95
2022-11-10T01:04:07.734Z,23.33
2022-11-10T01:06:53.408Z,30.70
2022-11-10T01:09:39.028Z,24.75
2022-11-10T01:12:24.584Z,21.25
2022-11-10T01:15:10.855Z,24.25
2022-11-10T01:17:57.844Z,24.60
2022-11-10T01:20:43.516Z,29.35
2022-11-10T01:23:29.631Z,25.27
2022-11-10T01:26:15.977Z,18.15
2022-11-10T01:29:01.626Z,20.83
2022-11-10T01:31:47.081Z,26.17
2022-11-10T01:34:34.352Z,23.92
2022-11-10T01:37:20.017Z,25.00
2022-11-10T01:40:06.664Z,29.65
2022-11-10T01:42:55.120Z,25.42
2022-11-10T01:45:47.600Z,28.67
2022-11-10T01:48:36.224Z,23.83
2022-11-10T01:51:29.131Z,21.73
2022-11-10T01:54:18.933Z,23.83
2022-11-10T01:57:08.919Z,29.73
2022-11-10T01:59:54.698Z,23.02
2022-11-10T02:02:44.651Z,27.73
2022-11-10T02:05:30.707Z,26.63
2022-11-10T02:08:18.730Z,21.23
2022-11-10T02:11:04.436Z,23.38
2022-11-10T02:13:51.380Z,26.45
2022-11-10T02:16:37.366Z,29.55
2022-11-10T02:19:25.094Z,28.42
2022-11-10T02:22:12.203Z,31.20
2022-11-10T02:24:58.196Z,24.55
2022-11-10T02:27:43.885Z,23.75
2022-11-10T02:30:29.700Z,26.23
2022-11-10T02:33:17.862Z,25.35
2022-11-10T02:36:03.847Z,25.90
2022-11-10T02:38:51.229Z,24.00
2022-11-10T02:41:37.187Z,29.15
2022-11-10T02:44:22.635Z,37.30
2022-11-10T02:47:08.410Z,25.25
2022-11-10T02:49:54.111Z,25.80
2022-11-10T02:52:39.813Z,20.00
2022-11-10T02:55:27.185Z,27.30
2022-11-10T02:58:15.453Z,27.48
2022-11-10T03:01:10.787Z,27.60
2022-11-10T03:03:56.041Z,24.77
2022-11-10T03:06:41.710Z,22.15
2022-11-10T03:09:26.875Z,30.88
2022-11-10T03:12:13.756Z,24.85
2022-11-10T03:14:59.299Z,33.88
2022-11-10T03:17:44.637Z,25.33
2022-11-10T03:20:30.323Z,27.40
2022-11-10T03:23:16.717Z,19.58
2022-11-10T03:26:04.320Z,25.85
2022-11-10T03:28:51.631Z,26.70
2022-11-10T03:31:37.043Z,31.23
2022-11-10T03:34:22.359Z,26.98
2022-11-10T03:37:08.162Z,29.70
2022-11-10T03:39:53.921Z,27.98
2022-11-10T03:42:42.919Z,26.63
2022-11-10T03:45:29.926Z,28.08
2022-11-10T03:48:15.345Z,23.80
2022-11-10T03:51:00.775Z,28.02
2022-11-10T03:53:46.723Z,21.48
2022-11-10T03:56:32.289Z,24.05
2022-11-10T03:59:17.594Z,32.42
2022-11-10T04:02:04.526Z,17.42
2022-11-10T04:05:08.800Z,28.08
2022-11-10T04:08:17.307Z,22.42
2022-11-10T04:11:03.633Z,28.02
2022-11-10T04:14:07.988Z,19.02
2022-11-10T04:16:53.461Z,29.50
2022-11-10T04:19:40.374Z,26.25
2022-11-10T04:22:44.683Z,38.22
2022-11-10T04:25:30.203Z,24.05
2022-11-10T04:28:15.876Z,29.52
2022-11-10T04:31:01.706Z,25.23
2022-11-10T04:33:48.584Z,34.38
2022-11-10T04:36:37.587Z,27.90
2022-11-10T04:39:23.372Z,36.15
2022-11-10T04:42:09.235Z,23.42
2022-11-10T04:44:54.949Z,41.97
2022-11-10T04:47:40.446Z,31.60
2022-11-10T04:50:25.826Z,26.05
2022-11-10T04:53:12.951Z,22.75
2022-11-10T04:55:58.442Z,29.08
2022-11-10T04:58:44.122Z,27.05
2022-11-10T05:01:29.981Z,28.85
2022-11-10T05:04:15.614Z,31.05
2022-11-10T05:07:01.143Z,31.80
2022-11-10T05:09:47.854Z,24.20
2022-11-10T05:12:33.574Z,30.25
2022-11-10T05:15:18.964Z,22.30
2022-11-10T05:18:04.775Z,20.23
2022-11-10T05:20:50.206Z,30.75
2022-11-10T05:23:38.745Z,30.67
2022-11-10T05:26:25.534Z,24.02
2022-11-10T05:29:11.312Z,23.08
2022-11-10T05:31:56.802Z,31.58
2022-11-10T05:34:42.343Z,21.48
2022-11-10T05:37:27.941Z,21.35
2022-11-10T05:40:13.439Z,21.40
2022-11-10T05:43:00.613Z,33.72
2022-11-10T05:45:46.379Z,27.73
2022-11-10T05:48:32.032Z,24.27
2022-11-10T05:51:17.615Z,25.85
2022-11-10T05:54:03.343Z,22.15
2022-11-10T05:56:48.913Z,27.33
2022-11-10T05:59:36.097Z,26.35
2022-11-10T06:02:21.763Z,26.65
2022-11-10T06:05:08.006Z,25.30
2022-11-10T06:07:53.643Z,20.70
2022-11-10T06:10:39.602Z,23.40
2022-11-10T06:13:25.764Z,27.85
2022-11-10T06:16:12.701Z,32.40
2022-11-10T06:18:58.425Z,23.40
2022-11-10T06:21:43.944Z,29.00
2022-11-10T06:24:29.263Z,24.65
2022-11-10T06:27:14.985Z,23.48
2022-11-10T06:30:00.652Z,30.23
2022-11-10T06:32:47.802Z,22.15
2022-11-10T06:35:33.176Z,18.17
2022-11-10T06:38:18.871Z,16.38
2022-11-10T06:41:04.651Z,19.00
2022-11-10T06:43:50.129Z,28.98
2022-11-10T06:46:41.073Z,23.70
2022-11-10T06:49:29.501Z,24.02
2022-11-10T06:52:15.287Z,24.58
2022-11-10T06:55:00.972Z,21.55
2022-11-10T06:57:46.958Z,24.67
2022-11-10T07:00:32.693Z,29.13
2022-11-10T07:03:18.233Z,23.67
2022-11-10T07:06:05.997Z,25.13
2022-11-10T07:08:51.814Z,25.20
2022-11-10T07:11:37.815Z,22.20
2022-11-10T07:14:23.466Z,27.20
2022-11-10T07:17:09.658Z,20.33
2022-11-10T07:19:55.236Z,39.88
2022-11-10T07:22:42.451Z,24.65
2022-11-10T07:25:30.038Z,26.98
2022-11-10T07:28:15.743Z,25.95
2022-11-10T07:31:01.862Z,22.48
2022-11-10T07:33:53.292Z,25.85
2022-11-10T07:36:40.144Z,18.83
2022-11-10T07:39:27.233Z,18.58
2022-11-10T07:42:13.000Z,19.58
2022-11-10T07:44:58.640Z,17.15
2022-11-10T07:47:44.430Z,24.17
2022-11-10T07:50:30.984Z,25.02
2022-11-10T07:53:20.259Z,18.98
2022-11-10T07:56:07.702Z,23.70
2022-11-10T07:58:53.465Z,14.15
2022-11-10T08:01:39.438Z,24.42
2022-11-10T08:04:25.107Z,23.08
2022-11-10T08:07:10.745Z,17.38
2022-11-10T08:09:56.589Z,16.70
2022-11-10T08:12:43.924Z,12.48
2022-11-10T08:15:30.841Z,25.67
2022-11-10T08:18:19.950Z,18.70
2022-11-10T08:21:06.622Z,17.52
2022-11-10T08:23:52.535Z,22.45
2022-11-10T08:26:38.603Z,14.32
2022-11-10T08:29:26.095Z,15.68
2022-11-10T08:32:12.135Z,12.52
2022-11-10T08:34:57.873Z,20.95
2022-11-10T08:37:43.771Z,16.40
2022-11-10T08:40:29.945Z,17.05
2022-11-10T08:43:16.741Z,11.50
2022-11-10T08:46:03.911Z,19.30
2022-11-10T08:48:49.756Z,13.98
2022-11-10T08:51:39.041Z,19.48
2022-11-10T08:54:25.463Z,15.85
2022-11-10T08:57:10.945Z,15.95
2022-11-10T08:59:57.147Z,18.73
2022-11-10T09:02:44.404Z,16.90
2022-11-10T09:05:30.391Z,14.43
2022-11-10T09:08:16.387Z,17.65
2022-11-10T09:11:05.972Z,19.10
2022-11-10T09:13:51.999Z,19.25
2022-11-10T09:16:37.793Z,20.60
2022-11-10T09:19:24.909Z,18.65
2022-11-10T09:22:10.671Z,13.00
2022-11-10T09:24:56.553Z,13.55
2022-11-10T09:27:42.254Z,16.13
2022-11-10T09:30:28.591Z,15.40
2022-11-10T09:33:14.632Z,14.27
2022-11-10T09:36:02.799Z,12.77
2022-11-10T09:38:48.563Z,12.25
2022-11-10T09:41:38.321Z,14.98
2022-11-10T09:44:27.080Z,15.43
2022-11-10T09:47:42.354Z,14.85
2022-11-10T09:50:31.015Z,11.90
2022-11-10T09:53:22.468Z,15.88
2022-11-10T09:56:14.892Z,13.65
2022-11-10T09:59:03.169Z,12.30
2022-11-10T10:01:52.298Z,16.17
2022-11-10T10:05:03.519Z,15.82
2022-11-10T10:07:54.287Z,12.77
2022-11-10T10:10:45.218Z,15.73
2022-11-10T10:13:53.383Z,10.93
2022-11-10T10:16:46.219Z,14.95
2022-11-10T10:19:42.723Z,15.38
2022-11-10T10:22:53.503Z,15.45
2022-11-10T10:25:42.022Z,11.05
2022-11-10T10:28:33.302Z,16.67
2022-11-10T10:31:21.527Z,12.80
2022-11-10T10:34:13.967Z,17.48
2022-11-10T10:36:59.576Z,13.23
2022-11-10T10:39:51.622Z,9.13
2022-11-10T10:42:38.848Z,13.82
2022-11-10T10:45:26.034Z,13.70
2022-11-10T10:48:25.717Z,14.65
2022-11-10T10:51:26.987Z,12.68
2022-11-10T10:54:27.441Z,19.88
2022-11-10T10:57:22.617Z,12.90
2022-11-10T11:00:20.644Z,10.02
2022-11-10T11:03:11.426Z,15.35
2022-11-10T11:06:01.568Z,15.10
2022-11-10T11:08:59.887Z,10.07
2022-11-10T11:11:58.881Z,14.43
2022-11-10T11:14:46.187Z,17.95
2022-11-10T11:17:34.467Z,14.73
2022-11-10T11:20:21.147Z,14.45
2022-11-10T11:23:15.784Z,15.48
2022-11-10T11:26:10.719Z,19.95
2022-11-10T11:29:06.023Z,13.85
2022-11-10T11:32:03.409Z,10.68
2022-11-10T11:35:01.110Z,14.75
2022-11-10T11:37:55.788Z,12.20
2022-11-10T11:40:48.111Z,11.90
2022-11-10T11:43:49.744Z,11.52
2022-11-10T11:49:59.995Z,11.05
2022-11-10T11:52:55.643Z,12.57
2022-11-10T11:56:00.775Z,10.07
2022-11-10T11:58:59.561Z,14.57
2022-11-10T12:02:02.608Z,16.05
2022-11-10T12:04:56.144Z,16.83
2022-11-10T12:07:53.440Z,13.48
2022-11-10T12:10:48.963Z,12.02
2022-11-10T12:13:42.813Z,11.90
2022-11-10T12:16:30.485Z,13.40
2022-11-10T12:19:27.850Z,14.57
2022-11-10T12:22:25.281Z,14.70
2022-11-10T12:25:21.549Z,13.82
2022-11-10T12:28:14.243Z,12.07
2022-11-10T12:31:03.354Z,19.02
2022-11-10T12:33:53.277Z,12.32
2022-11-10T12:36:39.683Z,14.00
2022-11-10T12:39:33.437Z,16.60
2022-11-10T12:42:23.513Z,11.90
2022-11-10T12:45:19.074Z,14.57
2022-11-10T12:48:06.456Z,10.95
2022-11-10T12:50:58.892Z,13.10
2022-11-10T12:53:46.142Z,9.25
2022-11-10T12:56:36.513Z,12.77
2022-11-10T12:59:30.049Z,11.82
2022-11-10T13:02:30.079Z,11.30
2022-11-10T13:05:28.283Z,11.15
2022-11-10T13:08:29.528Z,7.72
2022-11-10T13:11:25.804Z,9.70
2022-11-10T13:14:24.857Z,8.80
2022-11-10T13:17:55.835Z,10.85
2022-11-10T13:20:52.778Z,15.90
2022-11-10T13:24:19.877Z,12.77
2022-11-10T13:27:11.203Z,9.75
2022-11-10T13:29:58.168Z,9.45
2022-11-10T13:32:45.354Z,15.98
2022-11-10T13:35:55.182Z,11.52
2022-11-10T13:38:42.963Z,10.93
2022-11-10T13:41:34.612Z,12.00
2022-11-10T13:44:23.960Z,11.93
2022-11-10T13:47:38.051Z,11.32
2022-11-10T13:50:50.886Z,11.15
2022-11-10T13:53:46.510Z,10.35
2022-11-10T13:56:56.651Z,9.82
2022-11-10T13:59:50.442Z,10.02
2022-11-10T14:03:03.441Z,10.38
2022-11-10T14:06:10.446Z,19.98
2022-11-10T14:09:04.326Z,14.25
2022-11-10T14:11:56.748Z,9.00
2022-11-10T14:14:51.878Z,11.60
2022-11-10T14:17:42.966Z,8.93
2022-11-10T14:20:36.015Z,7.70
2022-11-10T14:23:27.079Z,10.88
2022-11-10T14:26:21.908Z,8.60
2022-11-10T14:29:31.245Z,12.05
2022-11-10T14:32:20.770Z,7.97
2022-11-10T14:35:17.394Z,7.75
2022-11-10T14:38:05.228Z,7.82
2022-11-10T14:40:55.596Z,8.52
2022-11-10T14:43:41.145Z,9.25
2022-11-10T14:46:26.984Z,10.98
2022-11-10T14:49:12.612Z,20.83
2022-11-10T14:52:00.461Z,8.02
2022-11-10T14:54:47.476Z,10.10
2022-11-10T14:57:35.312Z,10.90
2022-11-10T15:00:25.374Z,6.82
2022-11-10T15:03:15.516Z,9.27
2022-11-10T15:06:02.371Z,7.03
2022-11-10T15:08:48.644Z,9.80
2022-11-10T15:11:38.144Z,10.95
2022-11-10T15:14:37.473Z,12.40
2022-11-10T15:17:44.007Z,8.77
2022-11-10T15:20:36.293Z,15.05
2022-11-10T15:23:30.532Z,6.53
2022-11-10T15:26:21.971Z,11.75
2022-11-10T15:29:19.058Z,10.77
2022-11-10T15:32:14.738Z,13.88
2022-11-10T15:35:08.919Z,14.23
2022-11-10T15:38:02.405Z,16.60
2022-11-10T15:40:49.718Z,11.88
2022-11-10T15:43:35.493Z,10.02
2022-11-10T15:46:24.425Z,6.10
2022-11-10T15:49:19.044Z,11.73
2022-11-10T15:52:11.162Z,8.70
2022-11-10T15:54:56.937Z,9.50
2022-11-10T15:57:42.883Z,5.10
2022-11-10T16:00:28.358Z,3.83
2022-11-10T16:03:16.343Z,9.05
2022-11-10T16:06:03.165Z,8.07
2022-11-10T16:08:48.843Z,11.23
2022-11-10T16:11:38.461Z,11.20
2022-11-10T16:14:24.530Z,10.52
2022-11-10T16:17:12.124Z,14.80
2022-11-10T16:19:57.712Z,7.65
2022-11-10T16:22:44.783Z,7.47
2022-11-10T16:25:30.555Z,8.45
2022-11-10T16:28:24.017Z,14.68
2022-11-10T16:31:11.144Z,9.35
2022-11-10T16:33:57.306Z,11.30
2022-11-10T16:36:46.179Z,8.35
2022-11-10T16:39:37.033Z,7.57
2022-11-10T16:42:22.903Z,7.93
2022-11-10T16:45:14.864Z,7.15
2022-11-10T16:48:00.827Z,6.93
2022-11-10T16:50:46.615Z,5.70
2022-11-10T16:53:32.559Z,9.98
2022-11-10T16:56:21.399Z,4.75
2022-11-10T16:59:07.070Z,4.63
2022-11-10T17:01:54.283Z,7.25
2022-11-10T17:04:40.132Z,9.25
2022-11-10T17:07:28.451Z,5.65
2022-11-10T17:10:16.043Z,8.20
2022-11-10T17:13:03.494Z,6.28
2022-11-10T17:15:50.509Z,7.90
2022-11-10T17:18:36.392Z,14.30
2022-11-10T17:21:24.462Z,11.55
2022-11-10T17:24:14.429Z,8.90
2022-11-10T17:27:00.331Z,7.97
2022-11-10T17:29:47.417Z,9.40
2022-11-10T17:33:03.170Z,9.68
2022-11-10T17:35:44.871Z,6.93
2022-11-10T17:38:33.118Z,6.43
2022-11-10T17:41:20.383Z,6.35
2022-11-10T17:44:10.410Z,6.13
2022-11-10T17:46:57.312Z,7.93
2022-11-10T17:49:43.080Z,6.68
2022-11-10T17:52:28.510Z,4.93
2022-11-10T17:55:18.002Z,11.35
2022-11-10T17:58:04.060Z,6.60
2022-11-10T18:00:50.041Z,11.68
2022-11-10T18:03:36.947Z,8.40
2022-11-10T18:06:22.530Z,8.82
2022-11-10T18:09:08.928Z,7.63
2022-11-10T18:11:54.470Z,13.15
2022-11-10T18:14:40.150Z,8.68
2022-11-10T18:17:25.643Z,9.40
2022-11-10T18:20:14.132Z,7.88
2022-11-10T18:23:00.383Z,12.63
2022-11-10T18:25:45.934Z,9.18
2022-11-10T18:28:32.156Z,11.98
2022-11-10T18:31:18.985Z,7.25
2022-11-10T18:34:04.729Z,10.63
2022-11-10T18:36:52.355Z,11.73
2022-11-10T18:39:38.405Z,12.60
2022-11-10T18:42:24.563Z,9.32
2022-11-10T18:45:11.388Z,9.02
2022-11-10T18:48:02.508Z,15.18
2022-11-10T18:50:49.036Z,12.73
2022-11-10T18:53:38.450Z,8.25
2022-11-10T18:56:27.227Z,13.35
2022-11-10T18:59:14.458Z,10.00
2022-11-10T19:05:16.532Z,10.48
2022-11-10T19:08:02.882Z,11.65
2022-11-10T19:10:51.884Z,12.73
2022-11-10T19:13:38.417Z,8.35
2022-11-10T19:16:24.616Z,13.60
2022-11-10T19:19:11.059Z,10.73
2022-11-10T19:21:56.966Z,10.18
2022-11-10T19:25:06.366Z,12.23
2022-11-10T19:27:50.384Z,6.75
2022-11-10T19:30:36.105Z,10.15
2022-11-10T19:33:22.264Z,11.65
2022-11-10T19:36:10.170Z,16.70
2022-11-10T19:38:56.757Z,10.70
2022-11-10T19:41:42.654Z,15.65
2022-11-10T19:44:29.559Z,10.15
2022-11-10T19:47:15.219Z,9.63
2022-11-10T19:50:00.933Z,10.02
2022-11-10T19:52:46.673Z,9.63
2022-11-10T19:55:32.842Z,11.05
2022-11-10T19:58:18.304Z,17.10
2022-11-10T20:01:05.936Z,12.98
2022-11-10T20:03:54.967Z,11.93
2022-11-10T20:06:40.780Z,14.40
2022-11-10T20:09:26.274Z,11.65
2022-11-10T20:12:12.579Z,13.30
2022-11-10T20:14:58.243Z,11.02
2022-11-10T20:17:45.155Z,12.07
2022-11-10T20:20:30.953Z,11.00
2022-11-10T20:23:17.593Z,9.55
2022-11-10T20:26:08.347Z,9.68
2022-11-10T20:28:54.142Z,12.93
2022-11-10T20:31:39.774Z,13.88
2022-11-10T20:34:26.790Z,9.68
2022-11-10T20:37:12.631Z,13.68
2022-11-10T20:39:58.402Z,9.13
2022-11-10T20:42:44.199Z,8.68
2022-11-10T20:45:29.558Z,9.35
2022-11-10T20:48:15.653Z,12.98
2022-11-10T20:51:11.228Z,12.82
2022-11-10T20:53:59.882Z,12.38
2022-11-10T20:56:46.541Z,16.98
2022-11-10T20:59:32.433Z,13.48
2022-11-10T21:02:18.223Z,9.50
2022-11-10T21:05:04.514Z,12.25
2022-11-10T21:07:51.615Z,11.25
2022-11-10T21:10:37.526Z,12.65
2022-11-10T21:13:24.568Z,18.83
2022-11-10T21:16:11.034Z,15.65
2022-11-10T21:18:57.371Z,13.90
2022-11-10T21:21:44.171Z,9.23
2022-11-10T21:24:32.993Z,16.63
2022-11-10T21:27:18.887Z,13.15
2022-11-10T21:30:08.832Z,15.18
2022-11-10T21:32:56.991Z,16.73
2022-11-10T21:35:42.647Z,12.65
2022-11-10T21:38:27.950Z,15.63
2022-11-10T21:41:15.988Z,13.23
2022-11-10T21:44:01.601Z,16.25
2022-11-10T21:46:47.299Z,12.30
2022-11-10T21:49:33.610Z,18.33
2022-11-10T21:52:19.371Z,17.55
2022-11-10T21:55:06.232Z,18.80
2022-11-10T21:58:00.661Z,16.63
2022-11-10T22:00:46.135Z,15.10
2022-11-10T22:03:32.512Z,15.82
2022-11-10T22:06:19.088Z,15.82
2022-11-10T22:09:04.851Z,11.82
2022-11-10T22:12:09.169Z,13.43
2022-11-10T22:15:14.737Z,19.05
2022-11-10T22:18:19.139Z,12.73
2022-11-10T22:21:06.564Z,11.35
2022-11-10T22:24:24.555Z,13.90
2022-11-10T22:27:10.257Z,18.95
2022-11-10T22:29:57.371Z,13.50
2022-11-10T22:32:43.385Z,20.42
2022-11-10T22:35:44.030Z,14.95
2022-11-10T22:38:30.319Z,16.58
2022-11-10T22:41:35.505Z,15.27
2022-11-10T22:44:24.983Z,18.88
2022-11-10T22:47:17.511Z,16.75
2022-11-10T22:50:03.316Z,20.85
2022-11-10T22:52:48.865Z,17.50
2022-11-10T22:55:34.599Z,18.30
2022-11-10T22:58:20.738Z,16.60
2022-11-10T23:01:08.117Z,14.00
2022-11-10T23:03:57.117Z,22.95
2022-11-10T23:06:42.919Z,23.83
2022-11-10T23:09:28.529Z,18.20
2022-11-10T23:12:14.495Z,14.45
2022-11-10T23:15:00.026Z,16.40
2022-11-10T23:17:45.280Z,17.08
2022-11-10T23:20:32.315Z,17.52
2022-11-10T23:23:17.842Z,14.43
2022-11-10T23:26:05.453Z,17.83
2022-11-10T23:28:53.063Z,18.88
2022-11-10T23:31:38.715Z,17.23
2022-11-10T23:34:24.487Z,19.85
2022-11-10T23:37:11.551Z,19.65
2022-11-10T23:39:56.863Z,18.65
2022-11-10T23:42:42.441Z,21.80
2022-11-10T23:45:46.193Z,19.40
2022-11-10T23:48:34.063Z,19.30
2022-11-10T23:51:20.021Z,19.48
2022-11-10T23:54:06.938Z,17.98
